sensor_id;sensor_type;location;lat;lon;timestamp;P1;durP1;ratioP1;P2;durP2;ratioP2
73120;SDS011;61307;49.628;-1.624;2023-02-11T00:01:20;7.82;;;6.15;;
73120;SDS011;61307;49.628;-1.624;2023-02-11T00:03:49;9.43;;;5.95;;
73120;SDS011;61307;49.628;-1.624;2023-02-11T00:06:17;7.30;;;5.88;;
73120;SDS011;61307;49.628;-1.624;2023-02-11T00:08:44;9.70;;;6.07;;
73120;SDS011;61307;49.628;-1.624;2023-02-11T00:11:12;7.45;;;5.72;;
73120;SDS011;61307;49.628;-1.624;2023-02-11T00:13:40;10.88;;;6.47;;
73120;SDS011;61307;49.628;-1.624;2023-02-11T00:16:07;8.40;;;5.88;;
73120;SDS011;61307;49.628;-1.624;2023-02-11T00:18:38;10.50;;;6.72;;
73120;SDS011;61307;49.628;-1.624;2023-02-11T00:21:05;9.35;;;6.40;;
73120;SDS011;61307;49.628;-1.624;2023-02-11T00:23:33;9.70;;;6.30;;
73120;SDS011;61307;49.628;-1.624;2023-02-11T00:26:01;9.43;;;6.28;;
73120;SDS011;61307;49.628;-1.624;2023-02-11T00:28:29;8.48;;;5.90;;
73120;SDS011;61307;49.628;-1.624;2023-02-11T00:30:56;10.13;;;6.60;;
73120;SDS011;61307;49.628;-1.624;2023-02-11T00:33:25;7.75;;;6.05;;
73120;SDS011;61307;49.628;-1.624;2023-02-11T00:35:54;9.20;;;6.18;;
73120;SDS011;61307;49.628;-1.624;2023-02-11T00:38:21;8.38;;;6.28;;
73120;SDS011;61307;49.628;-1.624;2023-02-11T00:40:49;8.77;;;5.93;;
73120;SDS011;61307;49.628;-1.624;2023-02-11T00:43:16;10.02;;;6.32;;
73120;SDS011;61307;49.628;-1.624;2023-02-11T00:45:43;7.65;;;6.15;;
73120;SDS011;61307;49.628;-1.624;2023-02-11T00:48:10;7.30;;;5.53;;
73120;SDS011;61307;49.628;-1.624;2023-02-11T00:50:37;8.32;;;6.13;;
73120;SDS011;61307;49.628;-1.624;2023-02-11T00:53:06;9.30;;;5.72;;
73120;SDS011;61307;49.628;-1.624;2023-02-11T00:55:33;9.57;;;6.00;;
73120;SDS011;61307;49.628;-1.624;2023-02-11T00:58:00;7.47;;;6.32;;
73120;SDS011;61307;49.628;-1.624;2023-02-11T01:00:28;9.95;;;5.97;;
73120;SDS011;61307;49.628;-1.624;2023-02-11T01:02:55;7.32;;;5.80;;
73120;SDS011;61307;49.628;-1.624;2023-02-11T01:05:22;7.93;;;6.07;;
73120;SDS011;61307;49.628;-1.624;2023-02-11T01:07:49;8.32;;;5.90;;
73120;SDS011;61307;49.628;-1.624;2023-02-11T01:10:19;9.40;;;6.10;;
73120;SDS011;61307;49.628;-1.624;2023-02-11T01:12:46;7.80;;;5.95;;
73120;SDS011;61307;49.628;-1.624;2023-02-11T01:15:14;10.68;;;6.40;;
73120;SDS011;61307;49.628;-1.624;2023-02-11T01:17:43;8.25;;;5.80;;
73120;SDS011;61307;49.628;-1.624;2023-02-11T01:20:11;8.65;;;6.03;;
73120;SDS011;61307;49.628;-1.624;2023-02-11T01:22:41;9.27;;;5.82;;
73120;SDS011;61307;49.628;-1.624;2023-02-11T01:25:08;8.05;;;5.47;;
73120;SDS011;61307;49.628;-1.624;2023-02-11T01:27:37;9.30;;;5.70;;
73120;SDS011;61307;49.628;-1.624;2023-02-11T01:30:05;7.57;;;5.50;;
73120;SDS011;61307;49.628;-1.624;2023-02-11T01:32:34;8.82;;;6.20;;
73120;SDS011;61307;49.628;-1.624;2023-02-11T01:35:02;12.32;;;6.05;;
73120;SDS011;61307;49.628;-1.624;2023-02-11T01:37:31;9.40;;;6.50;;
73120;SDS011;61307;49.628;-1.624;2023-02-11T01:39:58;9.30;;;5.57;;
73120;SDS011;61307;49.628;-1.624;2023-02-11T01:42:27;9.00;;;5.47;;
73120;SDS011;61307;49.628;-1.624;2023-02-11T01:44:57;7.95;;;5.55;;
73120;SDS011;61307;49.628;-1.624;2023-02-11T01:47:25;11.50;;;5.90;;
73120;SDS011;61307;49.628;-1.624;2023-02-11T01:49:54;6.65;;;5.45;;
73120;SDS011;61307;49.628;-1.624;2023-02-11T01:52:24;6.88;;;5.30;;
73120;SDS011;61307;49.628;-1.624;2023-02-11T01:54:56;8.00;;;5.38;;
73120;SDS011;61307;49.628;-1.624;2023-02-11T01:57:46;7.80;;;5.45;;
73120;SDS011;61307;49.628;-1.624;2023-02-11T02:00:20;8.85;;;5.45;;
73120;SDS011;61307;49.628;-1.624;2023-02-11T02:02:51;8.45;;;5.32;;
73120;SDS011;61307;49.628;-1.624;2023-02-11T02:05:25;8.50;;;5.55;;
73120;SDS011;61307;49.628;-1.624;2023-02-11T02:08:05;8.32;;;5.57;;
73120;SDS011;61307;49.628;-1.624;2023-02-11T02:10:40;7.18;;;5.22;;
73120;SDS011;61307;49.628;-1.624;2023-02-11T02:13:09;8.88;;;5.70;;
73120;SDS011;61307;49.628;-1.624;2023-02-11T02:15:39;9.00;;;5.78;;
73120;SDS011;61307;49.628;-1.624;2023-02-11T02:18:14;8.68;;;5.82;;
73120;SDS011;61307;49.628;-1.624;2023-02-11T02:21:09;8.27;;;5.38;;
73120;SDS011;61307;49.628;-1.624;2023-02-11T02:30:08;9.32;;;6.10;;
73120;SDS011;61307;49.628;-1.624;2023-02-11T02:33:06;8.85;;;5.57;;
73120;SDS011;61307;49.628;-1.624;2023-02-11T02:35:41;8.07;;;5.38;;
73120;SDS011;61307;49.628;-1.624;2023-02-11T02:38:15;6.93;;;5.30;;
73120;SDS011;61307;49.628;-1.624;2023-02-11T02:40:47;8.75;;;5.78;;
73120;SDS011;61307;49.628;-1.624;2023-02-11T02:43:17;8.13;;;5.60;;
73120;SDS011;61307;49.628;-1.624;2023-02-11T02:45:46;7.70;;;5.40;;
73120;SDS011;61307;49.628;-1.624;2023-02-11T02:48:28;9.13;;;5.57;;
73120;SDS011;61307;49.628;-1.624;2023-02-11T02:51:02;9.07;;;5.90;;
73120;SDS011;61307;49.628;-1.624;2023-02-11T02:53:40;6.60;;;4.97;;
73120;SDS011;61307;49.628;-1.624;2023-02-11T02:56:20;8.00;;;5.60;;
73120;SDS011;61307;49.628;-1.624;2023-02-11T03:01:53;7.95;;;5.40;;
73120;SDS011;61307;49.628;-1.624;2023-02-11T03:04:30;8.40;;;6.40;;
73120;SDS011;61307;49.628;-1.624;2023-02-11T03:07:04;8.40;;;5.40;;
73120;SDS011;61307;49.628;-1.624;2023-02-11T03:09:39;8.85;;;5.53;;
73120;SDS011;61307;49.628;-1.624;2023-02-11T03:12:10;9.10;;;5.93;;
73120;SDS011;61307;49.628;-1.624;2023-02-11T03:14:39;9.65;;;5.90;;
73120;SDS011;61307;49.628;-1.624;2023-02-11T03:17:06;7.93;;;5.90;;
73120;SDS011;61307;49.628;-1.624;2023-02-11T03:19:37;8.13;;;5.45;;
73120;SDS011;61307;49.628;-1.624;2023-02-11T03:22:07;7.55;;;5.20;;
73120;SDS011;61307;49.628;-1.624;2023-02-11T03:24:38;6.88;;;5.30;;
73120;SDS011;61307;49.628;-1.624;2023-02-11T03:27:08;9.13;;;5.40;;
73120;SDS011;61307;49.628;-1.624;2023-02-11T03:29:42;8.65;;;5.43;;
73120;SDS011;61307;49.628;-1.624;2023-02-11T03:32:16;8.70;;;5.50;;
73120;SDS011;61307;49.628;-1.624;2023-02-11T03:34:52;8.23;;;5.35;;
73120;SDS011;61307;49.628;-1.624;2023-02-11T03:37:23;8.90;;;5.68;;
73120;SDS011;61307;49.628;-1.624;2023-02-11T03:39:55;8.82;;;5.60;;
73120;SDS011;61307;49.628;-1.624;2023-02-11T03:42:34;6.80;;;5.43;;
73120;SDS011;61307;49.628;-1.624;2023-02-11T03:45:07;7.82;;;5.55;;
73120;SDS011;61307;49.628;-1.624;2023-02-11T03:47:39;7.80;;;4.97;;
73120;SDS011;61307;49.628;-1.624;2023-02-11T03:50:13;7.22;;;5.00;;
73120;SDS011;61307;49.628;-1.624;2023-02-11T03:52:41;5.82;;;5.22;;
73120;SDS011;61307;49.628;-1.624;2023-02-11T03:55:11;6.65;;;5.10;;
73120;SDS011;61307;49.628;-1.624;2023-02-11T03:57:41;7.18;;;5.10;;
73120;SDS011;61307;49.628;-1.624;2023-02-11T04:00:09;7.18;;;4.90;;
73120;SDS011;61307;49.628;-1.624;2023-02-11T04:02:37;7.05;;;5.25;;
73120;SDS011;61307;49.628;-1.624;2023-02-11T04:05:06;6.28;;;4.57;;
73120;SDS011;61307;49.628;-1.624;2023-02-11T04:07:41;7.88;;;5.07;;
73120;SDS011;61307;49.628;-1.624;2023-02-11T04:10:09;5.85;;;4.45;;
73120;SDS011;61307;49.628;-1.624;2023-02-11T04:12:37;6.30;;;5.10;;
73120;SDS011;61307;49.628;-1.624;2023-02-11T04:15:05;5.43;;;4.60;;
73120;SDS011;61307;49.628;-1.624;2023-02-11T04:17:33;7.15;;;5.32;;
73120;SDS011;61307;49.628;-1.624;2023-02-11T04:20:00;5.85;;;4.78;;
73120;SDS011;61307;49.628;-1.624;2023-02-11T04:22:28;7.15;;;5.22;;
73120;SDS011;61307;49.628;-1.624;2023-02-11T04:24:57;6.50;;;4.80;;
73120;SDS011;61307;49.628;-1.624;2023-02-11T04:27:24;8.65;;;5.57;;
73120;SDS011;61307;49.628;-1.624;2023-02-11T04:29:51;6.43;;;4.70;;
73120;SDS011;61307;49.628;-1.624;2023-02-11T04:32:18;6.90;;;5.10;;
73120;SDS011;61307;49.628;-1.624;2023-02-11T04:34:45;7.75;;;5.43;;
73120;SDS011;61307;49.628;-1.624;2023-02-11T04:37:12;6.60;;;5.05;;
73120;SDS011;61307;49.628;-1.624;2023-02-11T04:39:40;6.85;;;5.00;;
73120;SDS011;61307;49.628;-1.624;2023-02-11T04:42:08;6.82;;;4.80;;
73120;SDS011;61307;49.628;-1.624;2023-02-11T04:44:36;7.03;;;5.22;;
73120;SDS011;61307;49.628;-1.624;2023-02-11T04:47:03;7.35;;;4.93;;
73120;SDS011;61307;49.628;-1.624;2023-02-11T04:49:31;7.30;;;5.35;;
73120;SDS011;61307;49.628;-1.624;2023-02-11T04:51:58;7.38;;;4.82;;
73120;SDS011;61307;49.628;-1.624;2023-02-11T04:54:25;6.72;;;4.93;;
73120;SDS011;61307;49.628;-1.624;2023-02-11T04:56:52;7.43;;;5.70;;
73120;SDS011;61307;49.628;-1.624;2023-02-11T04:59:21;7.13;;;5.30;;
73120;SDS011;61307;49.628;-1.624;2023-02-11T05:01:49;7.15;;;5.05;;
73120;SDS011;61307;49.628;-1.624;2023-02-11T05:04:16;7.03;;;5.15;;
73120;SDS011;61307;49.628;-1.624;2023-02-11T05:06:43;7.25;;;5.28;;
73120;SDS011;61307;49.628;-1.624;2023-02-11T05:09:11;6.25;;;4.78;;
73120;SDS011;61307;49.628;-1.624;2023-02-11T05:11:39;7.03;;;5.32;;
73120;SDS011;61307;49.628;-1.624;2023-02-11T05:14:06;6.32;;;4.90;;
73120;SDS011;61307;49.628;-1.624;2023-02-11T05:16:35;7.00;;;5.00;;
73120;SDS011;61307;49.628;-1.624;2023-02-11T05:19:02;6.60;;;5.07;;
73120;SDS011;61307;49.628;-1.624;2023-02-11T05:21:29;6.35;;;4.60;;
73120;SDS011;61307;49.628;-1.624;2023-02-11T05:23:57;6.28;;;4.57;;
73120;SDS011;61307;49.628;-1.624;2023-02-11T05:26:24;5.78;;;4.70;;
73120;SDS011;61307;49.628;-1.624;2023-02-11T05:28:52;7.18;;;4.90;;
73120;SDS011;61307;49.628;-1.624;2023-02-11T05:31:19;6.85;;;4.60;;
73120;SDS011;61307;49.628;-1.624;2023-02-11T05:33:47;5.80;;;4.40;;
73120;SDS011;61307;49.628;-1.624;2023-02-11T05:36:15;6.60;;;4.57;;
73120;SDS011;61307;49.628;-1.624;2023-02-11T05:38:42;6.57;;;4.90;;
73120;SDS011;61307;49.628;-1.624;2023-02-11T05:41:09;6.80;;;4.75;;
73120;SDS011;61307;49.628;-1.624;2023-02-11T05:43:36;5.25;;;4.32;;
73120;SDS011;61307;49.628;-1.624;2023-02-11T05:46:04;6.68;;;5.20;;
73120;SDS011;61307;49.628;-1.624;2023-02-11T05:48:31;5.93;;;4.47;;
73120;SDS011;61307;49.628;-1.624;2023-02-11T05:51:01;7.05;;;4.85;;
73120;SDS011;61307;49.628;-1.624;2023-02-11T05:53:28;7.45;;;4.72;;
73120;SDS011;61307;49.628;-1.624;2023-02-11T05:55:55;7.13;;;4.90;;
73120;SDS011;61307;49.628;-1.624;2023-02-11T05:58:22;6.43;;;4.80;;
73120;SDS011;61307;49.628;-1.624;2023-02-11T06:00:49;6.25;;;4.22;;
73120;SDS011;61307;49.628;-1.624;2023-02-11T06:03:17;5.35;;;4.60;;
73120;SDS011;61307;49.628;-1.624;2023-02-11T06:05:44;5.57;;;4.68;;
73120;SDS011;61307;49.628;-1.624;2023-02-11T06:08:13;5.40;;;4.25;;
73120;SDS011;61307;49.628;-1.624;2023-02-11T06:10:40;5.38;;;4.50;;
73120;SDS011;61307;49.628;-1.624;2023-02-11T06:13:09;6.00;;;4.60;;
73120;SDS011;61307;49.628;-1.624;2023-02-11T06:15:37;5.13;;;4.25;;
73120;SDS011;61307;49.628;-1.624;2023-02-11T06:18:04;5.97;;;4.70;;
73120;SDS011;61307;49.628;-1.624;2023-02-11T06:20:31;5.30;;;4.50;;
73120;SDS011;61307;49.628;-1.624;2023-02-11T06:22:59;6.50;;;4.68;;
73120;SDS011;61307;49.628;-1.624;2023-02-11T06:25:28;6.45;;;4.75;;
73120;SDS011;61307;49.628;-1.624;2023-02-11T06:27:55;5.75;;;4.40;;
73120;SDS011;61307;49.628;-1.624;2023-02-11T06:30:22;5.03;;;4.32;;
73120;SDS011;61307;49.628;-1.624;2023-02-11T06:32:49;6.22;;;4.22;;
73120;SDS011;61307;49.628;-1.624;2023-02-11T06:35:17;4.82;;;4.32;;
73120;SDS011;61307;49.628;-1.624;2023-02-11T06:37:44;5.13;;;4.28;;
73120;SDS011;61307;49.628;-1.624;2023-02-11T06:40:12;6.88;;;4.70;;
73120;SDS011;61307;49.628;-1.624;2023-02-11T06:42:40;5.70;;;4.28;;
73120;SDS011;61307;49.628;-1.624;2023-02-11T06:45:08;5.40;;;4.22;;
73120;SDS011;61307;49.628;-1.624;2023-02-11T06:47:37;5.90;;;4.90;;
73120;SDS011;61307;49.628;-1.624;2023-02-11T06:50:05;6.55;;;4.45;;
73120;SDS011;61307;49.628;-1.624;2023-02-11T06:52:33;5.00;;;4.18;;
73120;SDS011;61307;49.628;-1.624;2023-02-11T06:55:01;4.72;;;3.90;;
73120;SDS011;61307;49.628;-1.624;2023-02-11T06:57:28;5.45;;;4.10;;
73120;SDS011;61307;49.628;-1.624;2023-02-11T06:59:58;4.40;;;3.60;;
73120;SDS011;61307;49.628;-1.624;2023-02-11T07:02:25;5.28;;;3.88;;
73120;SDS011;61307;49.628;-1.624;2023-02-11T07:04:52;4.68;;;3.58;;
73120;SDS011;61307;49.628;-1.624;2023-02-11T07:07:19;4.97;;;3.97;;
73120;SDS011;61307;49.628;-1.624;2023-02-11T07:09:46;5.15;;;3.97;;
73120;SDS011;61307;49.628;-1.624;2023-02-11T07:12:13;4.40;;;3.90;;
73120;SDS011;61307;49.628;-1.624;2023-02-11T07:14:40;4.63;;;3.58;;
73120;SDS011;61307;49.628;-1.624;2023-02-11T07:17:09;4.60;;;3.58;;
73120;SDS011;61307;49.628;-1.624;2023-02-11T07:19:36;4.80;;;3.80;;
73120;SDS011;61307;49.628;-1.624;2023-02-11T07:22:04;4.80;;;4.00;;
73120;SDS011;61307;49.628;-1.624;2023-02-11T07:24:31;4.90;;;3.72;;
73120;SDS011;61307;49.628;-1.624;2023-02-11T07:26:58;5.10;;;3.75;;
73120;SDS011;61307;49.628;-1.624;2023-02-11T07:29:26;4.13;;;3.30;;
73120;SDS011;61307;49.628;-1.624;2023-02-11T07:31:53;5.28;;;4.22;;
73120;SDS011;61307;49.628;-1.624;2023-02-11T07:34:22;3.55;;;3.22;;
73120;SDS011;61307;49.628;-1.624;2023-02-11T07:36:49;4.10;;;3.42;;
73120;SDS011;61307;49.628;-1.624;2023-02-11T07:39:17;3.95;;;3.15;;
73120;SDS011;61307;49.628;-1.624;2023-02-11T07:41:46;4.75;;;3.60;;
73120;SDS011;61307;49.628;-1.624;2023-02-11T07:44:13;3.67;;;3.00;;
73120;SDS011;61307;49.628;-1.624;2023-02-11T07:46:41;3.70;;;3.22;;
73120;SDS011;61307;49.628;-1.624;2023-02-11T07:49:09;3.97;;;3.30;;
73120;SDS011;61307;49.628;-1.624;2023-02-11T07:51:38;3.88;;;3.22;;
73120;SDS011;61307;49.628;-1.624;2023-02-11T07:54:05;4.38;;;3.28;;
73120;SDS011;61307;49.628;-1.624;2023-02-11T07:56:33;3.80;;;2.97;;
73120;SDS011;61307;49.628;-1.624;2023-02-11T07:59:01;5.32;;;3.35;;
73120;SDS011;61307;49.628;-1.624;2023-02-11T08:01:28;3.92;;;3.22;;
73120;SDS011;61307;49.628;-1.624;2023-02-11T08:03:57;3.83;;;3.17;;
73120;SDS011;61307;49.628;-1.624;2023-02-11T08:06:27;4.35;;;3.25;;
73120;SDS011;61307;49.628;-1.624;2023-02-11T08:08:57;3.65;;;3.15;;
73120;SDS011;61307;49.628;-1.624;2023-02-11T08:11:25;4.15;;;3.25;;
73120;SDS011;61307;49.628;-1.624;2023-02-11T08:13:54;3.80;;;3.08;;
73120;SDS011;61307;49.628;-1.624;2023-02-11T08:16:22;3.63;;;2.90;;
73120;SDS011;61307;49.628;-1.624;2023-02-11T08:18:51;3.65;;;3.08;;
73120;SDS011;61307;49.628;-1.624;2023-02-11T08:21:21;4.32;;;3.30;;
73120;SDS011;61307;49.628;-1.624;2023-02-11T08:23:49;3.42;;;3.00;;
73120;SDS011;61307;49.628;-1.624;2023-02-11T08:26:18;3.97;;;3.10;;
73120;SDS011;61307;49.628;-1.624;2023-02-11T08:28:47;3.50;;;3.10;;
73120;SDS011;61307;49.628;-1.624;2023-02-11T08:31:16;3.30;;;2.78;;
73120;SDS011;61307;49.628;-1.624;2023-02-11T08:33:44;3.90;;;2.95;;
73120;SDS011;61307;49.628;-1.624;2023-02-11T08:36:12;3.90;;;3.38;;
73120;SDS011;61307;49.628;-1.624;2023-02-11T08:38:41;3.78;;;3.10;;
73120;SDS011;61307;49.628;-1.624;2023-02-11T08:41:08;3.80;;;3.00;;
73120;SDS011;61307;49.628;-1.624;2023-02-11T08:43:37;3.80;;;2.95;;
73120;SDS011;61307;49.628;-1.624;2023-02-11T08:46:06;3.63;;;2.80;;
73120;SDS011;61307;49.628;-1.624;2023-02-11T08:48:33;3.10;;;2.80;;
73120;SDS011;61307;49.628;-1.624;2023-02-11T08:51:04;3.72;;;2.88;;
73120;SDS011;61307;49.628;-1.624;2023-02-11T08:53:33;3.38;;;2.65;;
73120;SDS011;61307;49.628;-1.624;2023-02-11T08:56:00;3.33;;;2.70;;
73120;SDS011;61307;49.628;-1.624;2023-02-11T08:58:27;3.00;;;2.70;;
73120;SDS011;61307;49.628;-1.624;2023-02-11T09:00:56;3.33;;;3.03;;
73120;SDS011;61307;49.628;-1.624;2023-02-11T09:03:24;3.20;;;2.80;;
73120;SDS011;61307;49.628;-1.624;2023-02-11T09:05:51;3.92;;;3.20;;
73120;SDS011;61307;49.628;-1.624;2023-02-11T09:08:19;3.55;;;3.03;;
73120;SDS011;61307;49.628;-1.624;2023-02-11T09:10:46;4.75;;;3.15;;
73120;SDS011;61307;49.628;-1.624;2023-02-11T09:13:14;3.85;;;2.80;;
73120;SDS011;61307;49.628;-1.624;2023-02-11T09:15:43;3.25;;;2.60;;
73120;SDS011;61307;49.628;-1.624;2023-02-11T09:18:12;3.20;;;2.60;;
73120;SDS011;61307;49.628;-1.624;2023-02-11T09:20:39;3.03;;;2.45;;
73120;SDS011;61307;49.628;-1.624;2023-02-11T09:23:08;3.63;;;2.83;;
73120;SDS011;61307;49.628;-1.624;2023-02-11T09:25:37;3.03;;;2.58;;
73120;SDS011;61307;49.628;-1.624;2023-02-11T09:28:04;3.10;;;2.67;;
73120;SDS011;61307;49.628;-1.624;2023-02-11T09:30:32;2.88;;;2.40;;
73120;SDS011;61307;49.628;-1.624;2023-02-11T09:32:59;2.90;;;2.45;;
73120;SDS011;61307;49.628;-1.624;2023-02-11T09:35:27;3.25;;;2.75;;
73120;SDS011;61307;49.628;-1.624;2023-02-11T09:37:54;3.00;;;2.70;;
73120;SDS011;61307;49.628;-1.624;2023-02-11T09:40:21;4.15;;;2.80;;
73120;SDS011;61307;49.628;-1.624;2023-02-11T09:42:49;3.97;;;2.60;;
73120;SDS011;61307;49.628;-1.624;2023-02-11T09:45:19;4.20;;;2.42;;
73120;SDS011;61307;49.628;-1.624;2023-02-11T09:47:51;2.90;;;2.35;;
73120;SDS011;61307;49.628;-1.624;2023-02-11T09:50:22;3.88;;;2.60;;
73120;SDS011;61307;49.628;-1.624;2023-02-11T09:52:57;3.50;;;2.75;;
73120;SDS011;61307;49.628;-1.624;2023-02-11T09:55:28;2.97;;;2.33;;
73120;SDS011;61307;49.628;-1.624;2023-02-11T09:57:59;2.90;;;2.53;;
73120;SDS011;61307;49.628;-1.624;2023-02-11T10:00:32;3.28;;;2.75;;
73120;SDS011;61307;49.628;-1.624;2023-02-11T10:03:13;3.13;;;2.50;;
73120;SDS011;61307;49.628;-1.624;2023-02-11T10:06:06;2.83;;;2.38;;
73120;SDS011;61307;49.628;-1.624;2023-02-11T10:08:51;3.13;;;2.63;;
73120;SDS011;61307;49.628;-1.624;2023-02-11T10:11:29;2.78;;;2.50;;
73120;SDS011;61307;49.628;-1.624;2023-02-11T10:14:05;3.30;;;2.38;;
73120;SDS011;61307;49.628;-1.624;2023-02-11T10:16:42;3.08;;;2.30;;
73120;SDS011;61307;49.628;-1.624;2023-02-11T10:19:23;2.75;;;2.22;;
73120;SDS011;61307;49.628;-1.624;2023-02-11T10:22:03;2.78;;;2.20;;
73120;SDS011;61307;49.628;-1.624;2023-02-11T10:24:36;3.28;;;2.30;;
73120;SDS011;61307;49.628;-1.624;2023-02-11T10:27:07;2.67;;;2.47;;
73120;SDS011;61307;49.628;-1.624;2023-02-11T10:29:43;2.70;;;2.30;;
73120;SDS011;61307;49.628;-1.624;2023-02-11T10:32:17;2.42;;;2.10;;
73120;SDS011;61307;49.628;-1.624;2023-02-11T10:34:55;2.67;;;2.20;;
73120;SDS011;61307;49.628;-1.624;2023-02-11T10:37:27;2.22;;;2.03;;
73120;SDS011;61307;49.628;-1.624;2023-02-11T10:39:56;2.75;;;2.00;;
73120;SDS011;61307;49.628;-1.624;2023-02-11T10:42:23;2.20;;;1.80;;
73120;SDS011;61307;49.628;-1.624;2023-02-11T10:44:54;2.72;;;1.95;;
73120;SDS011;61307;49.628;-1.624;2023-02-11T10:47:26;2.50;;;1.90;;
73120;SDS011;61307;49.628;-1.624;2023-02-11T10:49:57;3.38;;;2.47;;
73120;SDS011;61307;49.628;-1.624;2023-02-11T10:52:28;2.25;;;2.00;;
73120;SDS011;61307;49.628;-1.624;2023-02-11T10:54:59;2.25;;;2.00;;
73120;SDS011;61307;49.628;-1.624;2023-02-11T10:57:30;3.45;;;2.30;;
73120;SDS011;61307;49.628;-1.624;2023-02-11T11:00:02;2.95;;;2.13;;
73120;SDS011;61307;49.628;-1.624;2023-02-11T11:02:42;2.10;;;1.65;;
73120;SDS011;61307;49.628;-1.624;2023-02-11T11:05:14;2.40;;;1.90;;
73120;SDS011;61307;49.628;-1.624;2023-02-11T11:07:50;2.22;;;1.92;;
73120;SDS011;61307;49.628;-1.624;2023-02-11T11:16:05;2.80;;;2.03;;
73120;SDS011;61307;49.628;-1.624;2023-02-11T11:18:44;2.45;;;1.80;;
73120;SDS011;61307;49.628;-1.624;2023-02-11T11:21:13;3.03;;;1.58;;
73120;SDS011;61307;49.628;-1.624;2023-02-11T11:23:47;3.38;;;1.90;;
73120;SDS011;61307;49.628;-1.624;2023-02-11T11:26:17;2.03;;;1.80;;
73120;SDS011;61307;49.628;-1.624;2023-02-11T11:28:59;2.50;;;1.70;;
73120;SDS011;61307;49.628;-1.624;2023-02-11T11:31:33;2.05;;;1.50;;
73120;SDS011;61307;49.628;-1.624;2023-02-11T11:34:04;2.15;;;1.73;;
73120;SDS011;61307;49.628;-1.624;2023-02-11T11:36:46;1.92;;;1.67;;
73120;SDS011;61307;49.628;-1.624;2023-02-11T11:39:19;3.22;;;1.90;;
73120;SDS011;61307;49.628;-1.624;2023-02-11T11:41:52;2.85;;;1.80;;
73120;SDS011;61307;49.628;-1.624;2023-02-11T11:44:26;1.75;;;1.60;;
73120;SDS011;61307;49.628;-1.624;2023-02-11T11:47:10;2.15;;;1.70;;
73120;SDS011;61307;49.628;-1.624;2023-02-11T11:49:54;2.60;;;2.00;;
73120;SDS011;61307;49.628;-1.624;2023-02-11T11:52:36;2.33;;;1.60;;
73120;SDS011;61307;49.628;-1.624;2023-02-11T11:55:11;1.77;;;1.60;;
73120;SDS011;61307;49.628;-1.624;2023-02-11T11:57:45;2.50;;;1.77;;
73120;SDS011;61307;49.628;-1.624;2023-02-11T12:00:13;2.17;;;1.88;;
73120;SDS011;61307;49.628;-1.624;2023-02-11T12:06:05;1.88;;;1.55;;
73120;SDS011;61307;49.628;-1.624;2023-02-11T12:08:41;2.33;;;1.50;;
73120;SDS011;61307;49.628;-1.624;2023-02-11T12:11:15;1.90;;;1.50;;
73120;SDS011;61307;49.628;-1.624;2023-02-11T12:13:59;1.85;;;1.40;;
73120;SDS011;61307;49.628;-1.624;2023-02-11T12:16:35;1.85;;;1.50;;
73120;SDS011;61307;49.628;-1.624;2023-02-11T12:19:16;2.47;;;1.65;;
73120;SDS011;61307;49.628;-1.624;2023-02-11T12:22:04;1.50;;;1.40;;
73120;SDS011;61307;49.628;-1.624;2023-02-11T12:24:40;1.65;;;1.50;;
73120;SDS011;61307;49.628;-1.624;2023-02-11T12:27:22;1.45;;;1.20;;
73120;SDS011;61307;49.628;-1.624;2023-02-11T12:30:06;2.17;;;1.80;;
73120;SDS011;61307;49.628;-1.624;2023-02-11T12:32:48;2.22;;;1.40;;
73120;SDS011;61307;49.628;-1.624;2023-02-11T12:35:25;2.10;;;1.52;;
73120;SDS011;61307;49.628;-1.624;2023-02-11T12:38:09;2.80;;;1.35;;
73120;SDS011;61307;49.628;-1.624;2023-02-11T12:40:58;1.77;;;1.38;;
73120;SDS011;61307;49.628;-1.624;2023-02-11T12:43:35;1.70;;;1.27;;
73120;SDS011;61307;49.628;-1.624;2023-02-11T12:49:02;1.30;;;1.20;;
73120;SDS011;61307;49.628;-1.624;2023-02-11T12:51:44;1.50;;;1.13;;
73120;SDS011;61307;49.628;-1.624;2023-02-11T12:54:24;2.60;;;1.38;;
73120;SDS011;61307;49.628;-1.624;2023-02-11T12:56:56;1.73;;;1.10;;
73120;SDS011;61307;49.628;-1.624;2023-02-11T13:02:23;1.52;;;1.10;;
73120;SDS011;61307;49.628;-1.624;2023-02-11T13:04:58;2.92;;;2.03;;
73120;SDS011;61307;49.628;-1.624;2023-02-11T13:07:32;2.60;;;1.67;;
73120;SDS011;61307;49.628;-1.624;2023-02-11T13:10:04;2.25;;;1.75;;
73120;SDS011;61307;49.628;-1.624;2023-02-11T13:12:42;1.52;;;1.35;;
73120;SDS011;61307;49.628;-1.624;2023-02-11T13:15:29;12.10;;;2.05;;
73120;SDS011;61307;49.628;-1.624;2023-02-11T13:17:59;3.35;;;1.60;;
73120;SDS011;61307;49.628;-1.624;2023-02-11T13:20:37;7.00;;;1.50;;
73120;SDS011;61307;49.628;-1.624;2023-02-11T13:23:20;1.73;;;1.30;;
73120;SDS011;61307;49.628;-1.624;2023-02-11T13:25:52;3.00;;;1.73;;
73120;SDS011;61307;49.628;-1.624;2023-02-11T13:28:28;3.20;;;1.58;;
73120;SDS011;61307;49.628;-1.624;2023-02-11T13:31:05;1.92;;;1.25;;
73120;SDS011;61307;49.628;-1.624;2023-02-11T13:33:39;1.90;;;1.40;;
73120;SDS011;61307;49.628;-1.624;2023-02-11T13:36:15;4.05;;;1.48;;
73120;SDS011;61307;49.628;-1.624;2023-02-11T13:38:52;3.58;;;2.00;;
73120;SDS011;61307;49.628;-1.624;2023-02-11T13:41:27;5.65;;;2.28;;
73120;SDS011;61307;49.628;-1.624;2023-02-11T13:43:58;2.25;;;1.58;;
73120;SDS011;61307;49.628;-1.624;2023-02-11T13:46:50;3.90;;;1.40;;
73120;SDS011;61307;49.628;-1.624;2023-02-11T13:49:28;2.05;;;1.52;;
73120;SDS011;61307;49.628;-1.624;2023-02-11T13:52:03;1.63;;;1.33;;
73120;SDS011;61307;49.628;-1.624;2023-02-11T13:54:32;2.03;;;1.48;;
73120;SDS011;61307;49.628;-1.624;2023-02-11T13:57:22;3.17;;;1.48;;
73120;SDS011;61307;49.628;-1.624;2023-02-11T14:00:05;5.95;;;1.52;;
73120;SDS011;61307;49.628;-1.624;2023-02-11T14:06:18;2.35;;;1.52;;
73120;SDS011;61307;49.628;-1.624;2023-02-11T14:09:09;4.80;;;1.48;;
73120;SDS011;61307;49.628;-1.624;2023-02-11T14:15:21;2.65;;;1.50;;
73120;SDS011;61307;49.628;-1.624;2023-02-11T14:17:55;5.32;;;1.38;;
73120;SDS011;61307;49.628;-1.624;2023-02-11T14:20:37;7.28;;;1.75;;
73120;SDS011;61307;49.628;-1.624;2023-02-11T14:23:22;3.75;;;1.52;;
73120;SDS011;61307;49.628;-1.624;2023-02-11T14:25:55;5.82;;;1.65;;
73120;SDS011;61307;49.628;-1.624;2023-02-11T14:28:44;6.22;;;1.63;;
73120;SDS011;61307;49.628;-1.624;2023-02-11T14:31:13;6.35;;;1.70;;
73120;SDS011;61307;49.628;-1.624;2023-02-11T14:33:54;8.13;;;1.38;;
73120;SDS011;61307;49.628;-1.624;2023-02-11T14:36:41;11.65;;;6.95;;
73120;SDS011;61307;49.628;-1.624;2023-02-11T14:39:23;4.57;;;3.42;;
73120;SDS011;61307;49.628;-1.624;2023-02-11T14:41:57;10.07;;;2.90;;
73120;SDS011;61307;49.628;-1.624;2023-02-11T14:44:29;6.65;;;2.08;;
73120;SDS011;61307;49.628;-1.624;2023-02-11T14:46:59;8.68;;;2.90;;
73120;SDS011;61307;49.628;-1.624;2023-02-11T14:49:27;5.10;;;2.15;;
73120;SDS011;61307;49.628;-1.624;2023-02-11T14:51:59;3.00;;;2.20;;
73120;SDS011;61307;49.628;-1.624;2023-02-11T14:54:34;5.80;;;1.90;;
73120;SDS011;61307;49.628;-1.624;2023-02-11T14:57:05;9.23;;;1.95;;
73120;SDS011;61307;49.628;-1.624;2023-02-11T14:59:35;8.05;;;1.88;;
73120;SDS011;61307;49.628;-1.624;2023-02-11T15:02:12;8.32;;;1.80;;
73120;SDS011;61307;49.628;-1.624;2023-02-11T15:04:46;2.45;;;1.60;;
73120;SDS011;61307;49.628;-1.624;2023-02-11T15:07:14;2.30;;;1.45;;
73120;SDS011;61307;49.628;-1.624;2023-02-11T15:09:44;2.20;;;1.63;;
73120;SDS011;61307;49.628;-1.624;2023-02-11T15:12:14;4.13;;;1.40;;
73120;SDS011;61307;49.628;-1.624;2023-02-11T15:14:48;2.45;;;1.33;;
73120;SDS011;61307;49.628;-1.624;2023-02-11T15:17:18;1.92;;;1.27;;
73120;SDS011;61307;49.628;-1.624;2023-02-11T15:19:49;2.83;;;1.42;;
73120;SDS011;61307;49.628;-1.624;2023-02-11T15:22:19;7.10;;;1.30;;
73120;SDS011;61307;49.628;-1.624;2023-02-11T15:25:06;17.88;;;1.40;;
73120;SDS011;61307;49.628;-1.624;2023-02-11T15:27:36;6.60;;;1.30;;
73120;SDS011;61307;49.628;-1.624;2023-02-11T15:30:16;5.20;;;1.23;;